Nearby METAR* Reports

*"METAR [Météorologique Aviation Régulière] is the international standard code format for hourly surface weather observations which is analogous to the SA coding currently used in the US. The acronym roughly translates from French as Aviation Routine Weather Report." (Source: https://www.ncdc.noaa.gov/wdcmet/data-access-search-viewer-tools/metar-terminal-aerodrome-forecast-taf-faq)

 

KTEB - Teterboro, New Jersey, USA
Distance from station: ENE 2mi, 3km
Updated: 02/27/2024 3:51am
Clear
Clear
 Wind from calm
Wind: Calm
Temperature: 36°F , 2°C
Dew Point: 32°F , 0°C
Humidity: 87%
Barometer: 30.02 inHg , 1016.6 hPa
Clouds: Clear
Visibility: 10 miles , 16 km
2024/02/27 08:51 KTEB 270851Z 00000KT 10SM CLR 02/00 A3002 RMK AO2 SLP166 T00170000 56007
KNYC - Nyc/Central Park, New York, USA
Distance from station: SE 8mi, 13km
Updated: 02/27/2024 3:51am
Clear
Clear
 Wind from NE
Wind: NE 3 mph , 6 km/h
Temperature: 43°F , 6°C
Dew Point: 36°F , 2°C
Humidity: 76%
Barometer: 30.05 inHg , 1017.6 hPa
Clouds: Clear
Visibility: 10 miles , 16 km
2024/02/27 08:51 KNYC 270851Z AUTO 05003KT 10SM CLR 06/02 A3005 RMK AO2 SLP168 T00560022 56007 $
KCDW - Caldwell, New Jersey, USA
Distance from station: W 11mi, 17km
Updated: 02/27/2024 3:53am
Clear
Clear
 Wind from NE
Wind: NE 3 mph , 6 km/h
Temperature: 34°F , 1°C
Dew Point: 28°F , -2°C
Humidity: 81%
Barometer: 30.03 inHg , 1016.9 hPa
Clouds: Clear
Visibility: 10 miles , 16 km
2024/02/27 08:53 KCDW 270853Z AUTO 04003KT 10SM CLR 01/M02 A3003 RMK AO2 SLP175 T00061022 56009
 
KLGA - Nyc/La Guardia, New York, USA
Distance from station: ESE 12mi, 19km
Updated: 02/27/2024 3:51am
Mostly cloudy
Mostly cloudy
 Wind from E
Wind: E 6 mph , 9 km/h
Temperature: 37°F , 3°C
Wind Chill: 32°F , 0°C
Dew Point: 34°F , 1°C
Humidity: 87%
Barometer: 30.04 inHg , 1017.3 hPa
Clouds: Mostly cloudy
Visibility: 10 miles , 16 km
Cloud details: Mostly cloudy 25000 ft
2024/02/27 08:51 KLGA 270851Z 09005KT 10SM BKN250 03/01 A3004 RMK AO2 SLP171 T00330006 55004
KEWR - Newark, New Jersey, USA
Distance from station: SSW 13mi, 20km
Updated: 02/27/2024 3:51am
Mostly cloudy
Mostly cloudy
 Wind from calm
Wind: Calm
Temperature: 39°F , 4°C
Dew Point: 36°F , 2°C
Humidity: 87%
Barometer: 30.03 inHg , 1016.9 hPa
Clouds: Mostly cloudy
Visibility: 10 miles , 16 km
Cloud details: Mostly cloudy 25000 ft
2024/02/27 08:51 KEWR 270851Z 00000KT 10SM BKN250 04/02 A3003 RMK AO2 SLP168 T00440017 56007
KMMU - Morristown Muni, New Jersey, USA
Distance from station: WSW 18mi, 29km
Updated: 02/27/2024 4:15am
Clear
Clear
 Wind from calm
Wind: Calm
Temperature: 28°F , -2°C
Dew Point: 27°F , -3°C
Humidity: 93%
Barometer: 30.03 inHg , 1016.9 hPa
Clouds: Clear
Visibility: 10 miles , 16 km
2024/02/27 09:15 KMMU 270915Z AUTO 00000KT 10SM CLR M02/M03 A3003 RMK AO2
 
KLDJ - Linden, New Jersey, USA
Distance from station: SSW 19mi, 30km
Updated: 02/27/2024 4:15am
Clear
Clear
 Wind from calm
Wind: Calm
Temperature: 39°F , 4°C
Dew Point: 36°F , 2°C
Humidity: 87%
Barometer: 30.04 inHg , 1017.3 hPa
Clouds: Clear
Visibility: 10 miles , 16 km
2024/02/27 09:15 KLDJ 270915Z AUTO 00000KT 10SM CLR 04/02 A3004 RMK AO2 T00400015
KJFK - Nyc/Jfk Arpt, New York, USA
Distance from station: SE 23mi, 36km
Updated: 02/27/2024 3:51am
Mist, Mostly cloudy
Mist, Mostly cloudy
 Wind from ENE
Wind: ENE 6 mph , 9 km/h
Temperature: 36°F , 2°C
Wind Chill: 31°F , -1°C
Dew Point: 34°F , 1°C
Humidity: 93%
Barometer: 30.04 inHg , 1017.3 hPa
Summary: Mist
Clouds: Mostly cloudy
Visibility: 4 miles , 6 km
Cloud details: Mostly cloudy 25000 ft
2024/02/27 08:51 KJFK 270851Z 06005KT 4SM BR BKN250 02/01 A3004 RMK AO2 SLP172 T00170011 56008
KHPN - White Plains, New York, USA
Distance from station: NE 25mi, 40km
Updated: 02/27/2024 3:56am
Clear
Clear
 Wind from calm
Wind: Calm
Temperature: 36°F , 2°C
Dew Point: 34°F , 1°C
Humidity: 93%
Barometer: 30.02 inHg , 1016.6 hPa
Clouds: Clear
Visibility: 10 miles , 16 km
2024/02/27 08:56 KHPN 270856Z 00000KT 10SM CLR 02/01 A3002 RMK AO2 SLP171 T00220006 56005
 
KSMQ - Somerville, New Jersey, USA
Distance from station: WSW 35mi, 56km
Updated: 02/27/2024 3:53am
Clear
Clear
 Wind from calm
Wind: Calm
Temperature: 28°F , -2°C
Dew Point: 27°F , -3°C
Humidity: 93%
Barometer: 30.01 inHg , 1016.3 hPa
Clouds: Clear
Visibility: 10 miles , 16 km
2024/02/27 08:53 KSMQ 270853Z AUTO 00000KT 10SM CLR M02/M03 A3001 RMK AO2 SLP164 T10171028 55004
K12N - Andover, New Jersey, USA
Distance from station: WNW 36mi, 57km
Updated: 02/27/2024 3:54am

 Wind from calm
Wind: Calm
Temperature: 30°F , -1°C
Dew Point: 27°F , -3°C
Humidity: 86%
Barometer: 30.00 inHg , 1015.9 hPa
2024/02/27 08:54 K12N 270854Z AUTO 00000KT M01/M03 A3000 RMK AO1 SLP163 T10061028 56010
KFRG - Farmingdale, New York, USA
Distance from station: ESE 36mi, 58km
Updated: 02/27/2024 4:14am
Fog, Overcast
Fog, Overcast
 Wind from NE
Wind: NE 3 mph , 6 km/h
Temperature: 36°F , 2°C
Dew Point: 34°F , 1°C
Humidity: 93%
Barometer: 30.05 inHg , 1017.6 hPa
Summary: Fog
Clouds: Overcast
Visibility: 1/2 mile , 0.8 km
Cloud details: Overcast 200 ft
2024/02/27 09:14 KFRG 270914Z AUTO 05003KT 1/2SM FG VV002 02/01 A3005 RMK AO1 T00170011 FZRANO $
 
KFWN - Sussex, New Jersey, USA
Distance from station: NW 37mi, 60km
Updated: 02/27/2024 3:53am
Clear
Clear
 Wind from calm
Wind: Calm
Temperature: 28°F , -2°C
Dew Point: 25°F , -4°C
Humidity: 86%
Barometer: 30.01 inHg , 1016.3 hPa
Clouds: Clear
Visibility: 10 miles , 16 km
2024/02/27 08:53 KFWN 270853Z AUTO 00000KT 10SM CLR M02/M04 A3001 RMK AO2 SLP163 T10221039 56009
KSWF - Newburgh/Stewart, New York, USA
Distance from station: 0 44mi, 72km
Updated: 02/27/2024 2:45am
NOT Current
Clear
Clear
 Wind from calm
Wind: Calm
Temperature: 32°F , 0°C
Dew Point: 30°F , -1°C
Humidity: 93%
Barometer: 30.01 inHg , 1016.3 hPa
Clouds: Clear
Visibility: 10 miles , 16 km
2024/02/27 07:45 KSWF 270745Z 00000KT 10SM SKC 00/M01 A3001
KMGJ - Montgomery, New York, USA
Distance from station: NNW 47mi, 75km
Updated: 02/27/2024 3:54am
Clear
Clear
 Wind from calm
Wind: Calm
Temperature: 28°F , -2°C
Dew Point: 25°F , -4°C
Humidity: 86%
Barometer: 30.00 inHg , 1015.9 hPa
Clouds: Clear
Visibility: 10 miles , 16 km
2024/02/27 08:54 KMGJ 270854Z AUTO 00000KT 10SM CLR M02/M04 A3000 RMK AO2 SLP163 T10221039 55007 $
 
KDXR - Danbury, Connecticut, USA
Distance from station: NE 47mi, 76km
Updated: 02/27/2024 3:53am
Clear
Clear
 Wind from calm
Wind: Calm
Temperature: 30°F , -1°C
Dew Point: 25°F , -4°C
Humidity: 80%
Barometer: 30.05 inHg , 1017.6 hPa
Clouds: Clear
Visibility: 10 miles , 16 km
2024/02/27 08:53 KDXR 270853Z AUTO 00000KT 10SM CLR M01/M04 A3005 RMK AO2 SLP176 T10111039 55006
KBLM - Belmar/Farmdale, New Jersey, USA
Distance from station: S 48mi, 77km
Updated: 02/27/2024 4:03am
Fog
Fog
 Wind from E
Wind: E 6 mph , 9 km/h
Temperature: 37°F , 3°C
Wind Chill: 32°F , 0°C
Dew Point: 37°F , 3°C
Humidity: 100%
Barometer: 30.04 inHg , 1017.3 hPa
Summary: Fog
Visibility: 1/4 mile , 0.4 km
2024/02/27 09:03 KBLM 270903Z AUTO 10005KT 1/4SM FG 03/03 A3004 RMK AO2 RVRNO $